»·PEaware :: DAL2189 KSLC-KPDX

DAL2189 :: KSLC-KPDX

FLIGHT INFORMATION

Flight Status: Arrived
Operator:
Delta Air Lines
More flights by this operator :: More flights under this callsign
Pilot: Joe P. (13940)
Aircraft: BOEING 737-700
(B737)
More flights by this aircraft type
Origin: KSLC Salt Lake City Intl
United States
Destination: KPDX Portland Intl
United States
More flights between these airports :: More routes between these airports
Route: N0449F340 CGULL1 TWF J15 BOI J163 BKE DCT JOTBA HHOOD4
File this flight plan on PilotEdge
Remarks: PBN / A1B1C1D1S1S2 DOF / 181122 REG / N389DA EET / KZSE0057 SEL / ABCD OPR / DAL PER / C RMK / TCAS SIMBRIEF
Altitude:
(Current/Filed)
34,000ft
Speed:
(Current/Filed)
450kts
Departed: 22-Nov-18 08:06 AM
Arrived: 22-Nov-18 09:41 AM
Distance/Time
Traveled:
546nm/1:35
Distance/Time
To Go:
Arrived

Flight Plot

Page will automatically refresh every two minutes.

Flight plan parsing failed; only flown route is shown


Map Options




Map Legend


Flown Route
Filed Route
Departure Airport
Arrival Airport
Navaid (VOR, NDB)
Fix

Horizontal Profiles

Position Reports

Time Latitude Longitude Heading Altitude Ground
Speed
22-Nov-18 07:19 40.788533 -111.980747 280 4235ft 0kts
22-Nov-18 07:20 40.788533 -111.980747 280 4235ft 0kts
22-Nov-18 07:21 40.788533 -111.980747 280 4235ft 0kts
22-Nov-18 07:22 40.788533 -111.980747 280 4235ft 0kts
22-Nov-18 07:23 40.788533 -111.980747 280 4235ft 0kts
22-Nov-18 07:24 40.788533 -111.980747 280 4235ft 0kts
22-Nov-18 07:25 40.788533 -111.980747 280 4235ft 0kts
22-Nov-18 07:26 40.788533 -111.980747 280 4235ft 0kts
22-Nov-18 07:27 40.788533 -111.980747 280 4235ft 0kts
22-Nov-18 07:28 40.788533 -111.980747 280 4235ft 0kts
22-Nov-18 07:29 40.788533 -111.980747 280 4235ft 0kts
22-Nov-18 07:30 40.788533 -111.980747 280 4235ft 0kts
22-Nov-18 07:31 40.788533 -111.980747 280 4235ft 0kts
22-Nov-18 07:32 40.788533 -111.980747 280 4235ft 0kts
22-Nov-18 07:33 40.788533 -111.980747 280 4235ft 0kts
22-Nov-18 07:34 40.788533 -111.980747 280 4235ft 0kts
22-Nov-18 07:35 40.788533 -111.980747 280 4235ft 0kts
22-Nov-18 07:36 40.788533 -111.980747 280 4235ft 0kts
22-Nov-18 07:37 40.788533 -111.980747 280 4235ft 0kts
22-Nov-18 07:38 40.788533 -111.980747 280 4235ft 0kts
22-Nov-18 07:39 40.788533 -111.980747 280 4235ft 0kts
22-Nov-18 07:40 40.788533 -111.980747 280 4235ft 0kts
22-Nov-18 07:41 40.788533 -111.980747 280 4235ft 0kts
22-Nov-18 07:42 40.788533 -111.980747 280 4235ft 0kts
22-Nov-18 07:43 40.788533 -111.980747 280 4235ft 0kts
22-Nov-18 07:44 40.788533 -111.980747 280 4235ft 0kts
22-Nov-18 07:45 40.788533 -111.980747 280 4235ft 0kts
22-Nov-18 07:46 40.788533 -111.980747 280 4235ft 0kts
22-Nov-18 07:47 40.788533 -111.980747 280 4235ft 0kts
22-Nov-18 07:48 40.788533 -111.980747 280 4235ft 0kts
22-Nov-18 07:49 40.788533 -111.980747 280 4235ft 0kts
22-Nov-18 07:50 40.788533 -111.980747 280 4235ft 0kts
22-Nov-18 07:51 40.788533 -111.980747 280 4235ft 0kts
22-Nov-18 07:52 40.788533 -111.980747 280 4234ft 0kts
22-Nov-18 07:53 40.788533 -111.980747 280 4234ft 0kts
22-Nov-18 07:54 40.788533 -111.980747 280 4234ft 0kts
22-Nov-18 07:55 40.788533 -111.980747 280 4234ft 0kts
22-Nov-18 07:56 40.788505 -111.980556 280 4234ft 2kts
22-Nov-18 07:57 40.788382 -111.979718 280 4234ft 2kts
22-Nov-18 07:58 40.788362 -111.979584 280 4234ft 0kts
22-Nov-18 07:59 40.788362 -111.979584 280 4234ft 0kts
22-Nov-18 08:00 40.788363 -111.979584 280 4234ft 0kts
22-Nov-18 08:01 40.788363 -111.979585 280 4234ft 0kts
22-Nov-18 08:02 40.788363 -111.979587 280 4234ft 0kts
22-Nov-18 08:03 40.789599 -111.979983 359 4234ft 16kts
22-Nov-18 08:04 40.791524 -111.977414 356 4234ft 17kts
22-Nov-18 08:05 40.797497 -111.978021 354 4234ft 22kts
22-Nov-18 08:06 40.802822 -111.978617 354 4234ft 19kts
22-Nov-18 08:07 40.807134 -111.979059 12 4234ft 7kts
22-Nov-18 08:08 40.806925 -111.976813 169 4234ft 4kts
22-Nov-18 08:09 40.792865 -111.975116 176 4248ft 157kts
22-Nov-18 08:10 40.756197 -111.999796 262 6429ft 202kts
22-Nov-18 08:11 40.795604 -112.070436 313 7716ft 284kts
22-Nov-18 08:12 40.854129 -112.145637 311 10875ft 296kts
22-Nov-18 08:13 40.918649 -112.228925 310 12427ft 353kts
22-Nov-18 08:14 40.990656 -112.322604 310 14816ft 369kts
22-Nov-18 08:15 41.065632 -112.419038 314 17033ft 386kts
22-Nov-18 08:16 41.157787 -112.499810 322 19037ft 405kts
22-Nov-18 08:17 41.248955 -112.590160 316 20832ft 415kts
22-Nov-18 08:18 41.331495 -112.697366 305 22474ft 418kts
22-Nov-18 08:19 41.410610 -112.814032 305 23926ft 429kts
22-Nov-18 08:20 41.489904 -112.935667 304 25296ft 438kts
22-Nov-18 08:21 41.570376 -113.059677 304 26529ft 446kts
22-Nov-18 08:22 41.638562 -113.164916 304 27443ft 453kts
22-Nov-18 08:23 41.721894 -113.293229 304 28450ft 460kts
22-Nov-18 08:24 41.819668 -113.445066 303 29757ft 461kts
22-Nov-18 08:25 41.889534 -113.554150 303 30724ft 460kts
22-Nov-18 08:26 41.972659 -113.684231 303 31847ft 459kts
22-Nov-18 08:27 42.055486 -113.814412 303 32882ft 458kts
22-Nov-18 08:28 42.137754 -113.944852 303 33913ft 456kts
22-Nov-18 08:29 42.220417 -114.075853 303 34017ft 456kts
22-Nov-18 08:30 42.302695 -114.206066 304 34018ft 457kts
22-Nov-18 08:31 42.384859 -114.336922 303 34019ft 457kts
22-Nov-18 08:32 42.466952 -114.468636 303 34020ft 457kts
22-Nov-18 08:33 42.550631 -114.599058 304 34021ft 459kts
22-Nov-18 08:34 42.634779 -114.729849 304 34024ft 459kts
22-Nov-18 08:35 42.718885 -114.861093 304 34024ft 460kts
22-Nov-18 08:36 42.803103 -114.992182 304 34023ft 460kts
22-Nov-18 08:37 42.886945 -115.123763 304 34019ft 460kts
22-Nov-18 08:38 42.970679 -115.255914 304 34014ft 460kts
22-Nov-18 08:39 43.054234 -115.388427 304 34006ft 460kts
22-Nov-18 08:40 43.137612 -115.521278 304 33997ft 460kts
22-Nov-18 08:41 43.220948 -115.654677 303 33996ft 460kts
22-Nov-18 08:42 43.304158 -115.788492 303 33994ft 461kts
22-Nov-18 08:43 43.385183 -115.918909 303 33987ft 461kts
22-Nov-18 08:44 43.467823 -116.053189 303 33981ft 460kts
22-Nov-18 08:45 43.551055 -116.187851 307 33979ft 464kts
22-Nov-18 08:46 43.647429 -116.308067 312 33980ft 468kts
22-Nov-18 08:47 43.744710 -116.427340 312 33980ft 468kts
22-Nov-18 08:48 43.842010 -116.546999 312 33987ft 467kts
22-Nov-18 08:49 43.939040 -116.666473 312 33996ft 467kts
22-Nov-18 08:50 44.035999 -116.786748 311 34002ft 466kts
22-Nov-18 08:51 44.132316 -116.906877 311 34005ft 465kts
22-Nov-18 08:52 44.228624 -117.027570 311 34000ft 465kts
22-Nov-18 08:53 44.324791 -117.148656 311 33987ft 464kts
22-Nov-18 08:54 44.420595 -117.269857 311 33966ft 463kts
22-Nov-18 08:55 44.515880 -117.390944 311 33940ft 463kts
22-Nov-18 08:56 44.611289 -117.512676 311 33917ft 463kts
22-Nov-18 08:57 44.706470 -117.634472 311 33899ft 463kts
22-Nov-18 08:58 44.801349 -117.757127 309 33889ft 462kts
22-Nov-18 08:59 44.853438 -117.911710 275 33889ft 432kts
22-Nov-18 09:00 44.875506 -118.077274 274 33886ft 429kts
22-Nov-18 09:01 44.896774 -118.243200 274 33881ft 429kts
22-Nov-18 09:02 44.918381 -118.408978 274 33874ft 429kts
22-Nov-18 09:03 44.939541 -118.574394 274 33866ft 429kts
22-Nov-18 09:04 44.960333 -118.740085 274 33863ft 428kts
22-Nov-18 09:05 44.980768 -118.905399 274 33868ft 428kts
22-Nov-18 09:06 45.000939 -119.070729 274 33865ft 427kts
22-Nov-18 09:07 45.020824 -119.235867 274 33864ft 426kts
22-Nov-18 09:08 45.040459 -119.401050 274 33875ft 426kts
22-Nov-18 09:09 45.059880 -119.566548 273 33875ft 425kts
22-Nov-18 09:10 45.078989 -119.731533 273 33874ft 425kts
22-Nov-18 09:11 45.097763 -119.895794 273 31982ft 423kts
22-Nov-18 09:12 45.116195 -120.059427 274 29712ft 413kts
22-Nov-18 09:13 45.134105 -120.216935 274 27737ft 399kts
22-Nov-18 09:14 45.150685 -120.369285 274 25821ft 385kts
22-Nov-18 09:15 45.170287 -120.516668 285 23959ft 377kts
22-Nov-18 09:16 45.216448 -120.647793 294 22716ft 373kts
22-Nov-18 09:17 45.266277 -120.776811 294 21539ft 369kts
22-Nov-18 09:18 45.314875 -120.903962 294 20385ft 363kts
22-Nov-18 09:19 45.362556 -121.029522 294 19249ft 357kts
22-Nov-18 09:20 45.409425 -121.152915 293 18132ft 352kts
22-Nov-18 09:21 45.444352 -121.279877 280 17233ft 341kts
22-Nov-18 09:22 45.468943 -121.407502 281 16192ft 325kts
22-Nov-18 09:23 45.493014 -121.528500 281 15181ft 312kts
22-Nov-18 09:24 45.515922 -121.645498 281 14199ft 297kts
22-Nov-18 09:25 45.531147 -121.755949 269 13467ft 268kts
22-Nov-18 09:26 45.534816 -121.860197 268 12437ft 260kts
22-Nov-18 09:27 45.539762 -121.962732 277 11287ft 261kts
22-Nov-18 09:28 45.560307 -122.063142 281 10277ft 263kts
22-Nov-18 09:29 45.581205 -122.163074 280 9441ft 262kts
22-Nov-18 09:30 45.601883 -122.263198 280 9009ft 265kts
22-Nov-18 09:31 45.623304 -122.367010 281 7984ft 278kts
22-Nov-18 09:32 45.646253 -122.472971 288 6883ft 281kts
22-Nov-18 09:33 45.680050 -122.566490 291 5907ft 252kts
22-Nov-18 09:34 45.709586 -122.648057 290 5496ft 205kts
22-Nov-18 09:35 45.735283 -122.719001 291 4489ft 201kts
22-Nov-18 09:36 45.759537 -122.786349 291 4141ft 177kts
22-Nov-18 09:37 45.747666 -122.832037 190 4043ft 158kts
22-Nov-18 09:38 45.704029 -122.835630 154 3886ft 167kts
22-Nov-18 09:39 45.671688 -122.787533 130 3000ft 154kts
22-Nov-18 09:40 45.650049 -122.737361 122 2212ft 146kts
22-Nov-18 09:41 45.629687 -122.685202 118 1412ft 145kts
22-Nov-18 09:42 45.609936 -122.634465 118 629ft 152kts
22-Nov-18 09:43 45.589982 -122.583266 119 26ft 131kts
22-Nov-18 09:44 45.586442 -122.576649 248 26ft 5kts
22-Nov-18 09:45 45.586529 -122.577575 295 26ft 0kts
22-Nov-18 09:46 45.586547 -122.577626 295 26ft 0kts
22-Nov-18 09:47 45.588685 -122.583016 301 26ft 17kts
22-Nov-18 09:48 45.590303 -122.588198 267 26ft 14kts
22-Nov-18 09:49 45.591716 -122.593610 267 26ft 4kts
22-Nov-18 09:50 45.591273 -122.594140 203 26ft 0kts
22-Nov-18 09:51 45.591270 -122.594141 203 26ft 0kts
22-Nov-18 09:52 45.591270 -122.594141 203 26ft 0kts
22-Nov-18 09:53 45.591270 -122.594141 203 26ft 0kts
22-Nov-18 09:54 45.591270 -122.594141 203 26ft 0kts

Navigation Log

Ident Type
Flight plan parsing failed, navigation log unavailable